Time;durP1;ratioP1;P1;durP2;ratioP2;P2;SDS_P1;SDS_P2;PMS_P1;PMS_P2;Temp;Humidity;BMP_temperature;BMP_pressure;BME280_temperature;BME280_humidity;BME280_pressure;Samples;Min_cycle;Max_cycle;Signal;HPM_P1;HPM_P2
2021/03/31 00:02:07;;;;;;;15.00;9.80;;;12.30;63.70;;;;;;4976549;28;21180;-87
2021/03/31 00:04:33;;;;;;;13.83;10.37;;;12.30;63.90;;;;;;4987368;28;20495;-87
2021/03/31 00:06:59;;;;;;;23.10;12.43;;;12.20;64.00;;;;;;4985302;28;20444;-88
2021/03/31 00:09:26;;;;;;;12.77;10.00;;;12.20;64.80;;;;;;4978385;28;20471;-87
2021/03/31 00:11:52;;;;;;;17.87;12.23;;;12.10;64.80;;;;;;4962369;28;20503;-87
2021/03/31 00:14:19;;;;;;;20.17;11.57;;;12.00;65.10;;;;;;4959488;29;20477;-87
2021/03/31 00:16:45;;;;;;;19.30;11.87;;;11.90;65.60;;;;;;4959616;29;20455;-88
2021/03/31 00:19:11;;;;;;;13.90;11.50;;;11.80;66.20;;;;;;4977130;29;20443;-87
2021/03/31 00:21:38;;;;;;;16.93;12.77;;;11.70;66.60;;;;;;4976224;28;20452;-88
2021/03/31 00:24:04;;;;;;;18.13;11.80;;;11.70;66.80;;;;;;4970443;28;20545;-87
2021/03/31 00:26:33;;;;;;;15.90;11.57;;;11.80;67.10;;;;;;4959614;29;20449;-87
2021/03/31 00:28:59;;;;;;;15.43;12.13;;;11.80;66.60;;;;;;4961515;29;20461;-87
2021/03/31 00:31:26;;;;;;;19.33;12.03;;;11.80;66.60;;;;;;4971971;28;20445;-88
2021/03/31 00:33:52;;;;;;;19.70;12.83;;;11.60;66.80;;;;;;4963473;29;20477;-87
2021/03/31 00:36:18;;;;;;;17.10;14.13;;;11.70;67.10;;;;;;4964540;28;20460;-88
2021/03/31 00:38:44;;;;;;;14.00;12.17;;;11.50;67.40;;;;;;4986669;28;20475;-88
2021/03/31 00:41:11;;;;;;;18.90;12.77;;;11.40;68.10;;;;;;4982667;28;20443;-87
2021/03/31 00:43:38;;;;;;;26.87;13.60;;;11.40;68.70;;;;;;4980305;28;20479;-87
2021/03/31 00:46:04;;;;;;;15.27;12.80;;;11.60;68.50;;;;;;4981339;28;20567;-87
2021/03/31 00:48:31;;;;;;;18.10;12.70;;;11.60;68.00;;;;;;4999385;28;20460;-88
2021/03/31 00:51:00;;;;;;;15.67;11.70;;;11.70;67.80;;;;;;4995930;28;20460;-87
2021/03/31 00:53:31;;;;;;;18.27;12.50;;;11.70;67.50;;;;;;4981298;28;20460;-88
2021/03/31 00:55:58;;;;;;;19.60;12.93;;;11.70;67.70;;;;;;4978356;28;21026;-87
2021/03/31 00:58:24;;;;;;;19.17;12.00;;;11.60;67.60;;;;;;4978064;28;20523;-87
2021/03/31 01:00:52;;;;;;;20.40;13.40;;;11.50;67.90;;;;;;4977790;28;20447;-88
2021/03/31 01:03:18;;;;;;;15.33;12.03;;;11.40;68.30;;;;;;4977189;28;20451;-87
2021/03/31 01:05:45;;;;;;;16.37;13.03;;;11.40;68.90;;;;;;4977026;28;20463;-88
2021/03/31 01:08:11;;;;;;;21.30;12.50;;;11.30;69.30;;;;;;4980018;28;20455;-88
2021/03/31 01:10:41;;;;;;;18.80;14.60;;;11.20;69.60;;;;;;4992948;28;21051;-87
2021/03/31 01:13:50;;;;;;;19.60;13.63;;;11.20;70.00;;;;;;4981164;28;20515;-87
2021/03/31 01:16:30;;;;;;;16.60;13.03;;;11.30;70.20;;;;;;4986696;28;20440;-87
2021/03/31 01:18:59;;;;;;;19.23;12.80;;;11.10;69.80;;;;;;4988605;28;20453;-87
2021/03/31 01:21:54;;;;;;;18.70;11.90;;;11.20;70.40;;;;;;4982417;28;20829;-87
2021/03/31 01:24:42;;;;;;;15.47;11.50;;;11.20;70.40;;;;;;4980765;28;20496;-87
2021/03/31 01:27:13;;;;;;;18.50;12.33;;;11.20;70.40;;;;;;4977156;28;20432;-86
2021/03/31 01:29:52;;;;;;;14.70;12.20;;;11.20;70.40;;;;;;4975503;28;20447;-88
2021/03/31 01:32:39;;;;;;;17.80;12.20;;;11.10;70.50;;;;;;4975715;28;20459;-87
2021/03/31 01:35:09;;;;;;;16.73;13.20;;;11.00;70.60;;;;;;4976786;28;20469;-87
2021/03/31 01:37:40;;;;;;;18.00;12.13;;;11.10;70.60;;;;;;4977225;28;20472;-86
2021/03/31 01:40:09;;;;;;;14.33;12.33;;;11.10;70.60;;;;;;4979075;28;20460;-87
2021/03/31 01:42:39;;;;;;;16.63;12.80;;;11.10;70.60;;;;;;4975483;28;20507;-87
2021/03/31 01:45:08;;;;;;;14.77;12.10;;;11.10;70.70;;;;;;4976116;28;20500;-87
2021/03/31 01:47:38;;;;;;;16.70;12.10;;;11.10;70.60;;;;;;4975565;28;20447;-87
2021/03/31 01:50:07;;;;;;;14.67;11.93;;;11.10;70.60;;;;;;4976521;28;20957;-87
2021/03/31 01:52:35;;;;;;;14.20;11.17;;;11.00;70.90;;;;;;4982140;28;20942;-87
2021/03/31 01:55:02;;;;;;;15.77;12.20;;;10.90;71.40;;;;;;4979756;28;20467;-87
2021/03/31 01:57:30;;;;;;;14.77;12.53;;;10.90;71.80;;;;;;4977815;28;20462;-86
2021/03/31 01:59:58;;;;;;;16.57;12.23;;;10.90;71.90;;;;;;4976817;28;20446;-86
2021/03/31 02:02:26;;;;;;;20.73;11.90;;;10.80;72.30;;;;;;4982968;28;20448;-87
2021/03/31 02:04:54;;;;;;;19.97;12.43;;;10.60;72.40;;;;;;4978296;28;20576;-86
2021/03/31 02:07:23;;;;;;;16.33;11.77;;;10.50;73.20;;;;;;4983119;28;20542;-86
2021/03/31 02:09:50;;;;;;;14.57;12.57;;;10.50;73.90;;;;;;4977972;28;20448;-87
2021/03/31 02:12:20;;;;;;;15.10;12.07;;;10.50;74.20;;;;;;4996888;28;20436;-86
2021/03/31 02:14:48;;;;;;;18.90;12.53;;;10.40;74.20;;;;;;4986288;28;20537;-86
2021/03/31 02:17:16;;;;;;;17.83;13.17;;;10.40;74.90;;;;;;4965599;28;20449;-87
2021/03/31 02:19:44;;;;;;;17.67;12.10;;;10.40;74.90;;;;;;4968624;29;20429;-86
2021/03/31 02:22:13;;;;;;;19.97;12.20;;;10.30;75.00;;;;;;4977729;28;20455;-86
2021/03/31 02:24:41;;;;;;;17.83;12.93;;;10.30;75.10;;;;;;4954772;23;538811;-89
2021/03/31 02:27:12;;;;;;;17.17;12.20;;;10.40;75.10;;;;;;4899653;29;20455;-89
2021/03/31 02:29:42;;;;;;;20.37;12.43;;;10.30;75.10;;;;;;4901356;29;20455;-89
2021/03/31 02:32:22;;;;;;;16.63;12.40;;;10.30;75.20;;;;;;4919506;29;20500;-86
2021/03/31 02:34:54;;;;;;;14.73;12.53;;;10.20;75.30;;;;;;4919041;29;20495;-86
2021/03/31 02:37:23;;;;;;;13.40;11.27;;;10.20;75.30;;;;;;4913364;29;20460;-87
2021/03/31 02:39:59;;;;;;;15.90;11.93;;;10.20;75.60;;;;;;4901220;29;20550;-86
2021/03/31 02:42:27;;;;;;;16.63;11.57;;;10.30;75.30;;;;;;4901544;29;20467;-87
2021/03/31 02:45:03;;;;;;;15.37;11.80;;;10.20;75.80;;;;;;4900497;29;20582;-89
2021/03/31 02:47:39;;;;;;;16.33;10.13;;;10.00;75.50;;;;;;4900410;29;20838;-88
2021/03/31 02:50:23;;;;;;;14.60;11.67;;;10.00;75.70;;;;;;4901710;29;20463;-87
2021/03/31 02:55:42;;;;;;;13.50;10.60;;;9.70;77.60;;;;;;4919051;29;20459;-87
2021/03/31 02:58:20;;;;;;;18.53;11.23;;;9.60;78.70;;;;;;4916877;29;20439;-86
2021/03/31 03:00:49;;;;;;;12.73;11.33;;;9.60;79.10;;;;;;4911735;29;20941;-87
2021/03/31 03:03:22;;;;;;;17.60;12.47;;;9.50;79.40;;;;;;4901300;29;20455;-87
2021/03/31 03:05:58;;;;;;;13.87;10.97;;;9.50;79.80;;;;;;4903178;29;20483;-88
2021/03/31 03:08:25;;;;;;;11.77;10.27;;;9.50;79.70;;;;;;4906173;29;20542;-87
2021/03/31 03:10:59;;;;;;;16.73;10.90;;;9.50;79.80;;;;;;4904063;29;20463;-87
2021/03/31 03:13:27;;;;;;;16.60;11.13;;;9.50;79.70;;;;;;4901518;29;21017;-89
2021/03/31 03:15:54;;;;;;;17.30;10.37;;;9.40;80.00;;;;;;4905539;29;20455;-88
2021/03/31 03:18:21;;;;;;;12.90;9.97;;;9.40;80.20;;;;;;4912804;29;20460;-87
2021/03/31 03:20:48;;;;;;;16.23;11.97;;;9.40;80.50;;;;;;4904681;29;20467;-88
2021/03/31 03:23:16;;;;;;;15.10;11.80;;;9.40;80.30;;;;;;4903797;29;20463;-87
2021/03/31 03:25:44;;;;;;;15.83;11.47;;;9.30;80.30;;;;;;4911869;29;20503;-89
2021/03/31 03:28:11;;;;;;;12.23;10.90;;;9.50;80.80;;;;;;4905396;29;20535;-89
2021/03/31 03:30:38;;;;;;;14.67;9.80;;;9.50;81.00;;;;;;4902145;29;21017;-87
2021/03/31 03:33:06;;;;;;;10.63;9.53;;;9.60;80.10;;;;;;4902438;29;20465;-87
2021/03/31 03:35:33;;;;;;;13.57;10.00;;;9.70;79.40;;;;;;4905613;29;20498;-87
2021/03/31 03:37:59;;;;;;;16.37;10.33;;;9.70;79.20;;;;;;4908110;29;20518;-89
2021/03/31 03:40:27;;;;;;;15.20;10.80;;;9.60;79.00;;;;;;4917980;29;20469;-88
2021/03/31 03:42:57;;;;;;;17.23;10.60;;;9.60;79.00;;;;;;4913168;29;20482;-87
2021/03/31 03:45:32;;;;;;;18.77;11.43;;;9.60;79.20;;;;;;4907820;29;21010;-88
2021/03/31 03:48:05;;;;;;;20.50;11.23;;;9.50;79.40;;;;;;4904878;29;20538;-89
2021/03/31 03:50:33;;;;;;;16.10;10.60;;;9.50;80.10;;;;;;4904186;29;20462;-88
2021/03/31 03:53:16;;;;;;;16.60;11.10;;;9.60;79.80;;;;;;4902380;29;20546;-87
2021/03/31 03:55:50;;;;;;;15.90;10.97;;;9.50;79.70;;;;;;4914785;29;20542;-88
2021/03/31 03:58:28;;;;;;;12.30;10.97;;;9.40;80.40;;;;;;4920115;29;20510;-89
2021/03/31 04:01:12;;;;;;;16.80;11.40;;;9.30;80.70;;;;;;4915664;29;20467;-88
2021/03/31 04:03:43;;;;;;;14.30;10.93;;;9.30;80.90;;;;;;4906293;29;20961;-88
2021/03/31 04:06:24;;;;;;;17.03;11.67;;;9.40;80.70;;;;;;4902756;29;20484;-89
2021/03/31 04:08:54;;;;;;;12.20;10.77;;;9.40;80.90;;;;;;4902712;29;20469;-89
2021/03/31 04:11:25;;;;;;;16.83;12.00;;;9.50;80.80;;;;;;4902038;29;20581;-88
2021/03/31 04:13:59;;;;;;;16.63;11.70;;;9.50;80.60;;;;;;4910642;29;20446;-86
2021/03/31 04:16:46;;;;;;;20.03;13.17;;;9.50;80.90;;;;;;4920692;29;20491;-89
2021/03/31 04:19:19;;;;;;;23.77;11.87;;;9.60;80.70;;;;;;4921870;29;20440;-88
2021/03/31 04:21:50;;;;;;;17.10;11.67;;;9.60;80.90;;;;;;4902910;29;20958;-88
2021/03/31 04:24:41;;;;;;;18.00;11.57;;;9.50;80.80;;;;;;4902227;29;20485;-88
2021/03/31 04:27:22;;;;;;;23.37;12.77;;;9.50;81.10;;;;;;4903995;29;20542;-89
2021/03/31 04:32:46;;;;;;;14.63;10.80;;;9.40;81.60;;;;;;4887816;29;20487;-88
2021/03/31 04:35:13;;;;;;;15.90;10.70;;;9.30;82.20;;;;;;4882870;29;20478;-88
2021/03/31 04:37:43;;;;;;;20.83;12.37;;;9.20;82.80;;;;;;4895108;29;20524;-87
2021/03/31 04:40:14;;;;;;;14.67;10.70;;;9.20;82.90;;;;;;4889796;29;20804;-89
2021/03/31 04:42:43;;;;;;;14.60;10.50;;;9.20;83.00;;;;;;4903792;29;20447;-88
2021/03/31 04:45:12;;;;;;;16.40;10.77;;;9.10;83.10;;;;;;4901613;29;20493;-88
2021/03/31 04:47:47;;;;;;;21.30;12.00;;;9.00;84.30;;;;;;4901325;29;20503;-88
2021/03/31 04:50:14;;;;;;;17.93;10.93;;;8.90;84.30;;;;;;4901219;29;20435;-88
2021/03/31 04:52:46;;;;;;;16.50;12.00;;;8.90;85.00;;;;;;4891065;29;20495;-88
2021/03/31 04:55:21;;;;;;;17.60;11.87;;;8.80;84.90;;;;;;4883139;29;20502;-88
2021/03/31 04:57:55;;;;;;;17.40;12.60;;;8.90;85.80;;;;;;4881981;29;20468;-88
2021/03/31 05:00:25;;;;;;;16.40;11.70;;;8.80;85.60;;;;;;4883219;29;20460;-89
2021/03/31 05:03:08;;;;;;;17.37;11.13;;;8.80;86.00;;;;;;4884456;29;20456;-88
2021/03/31 05:05:38;;;;;;;24.67;12.13;;;8.80;86.10;;;;;;4883216;29;20496;-88
2021/03/31 05:08:22;;;;;;;20.67;12.50;;;8.80;86.50;;;;;;4894162;29;20444;-88
2021/03/31 05:11:31;;;;;;;20.73;12.13;;;8.90;86.40;;;;;;4913580;29;20432;-87
2021/03/31 05:14:35;;;;;;;23.47;13.70;;;8.90;86.30;;;;;;4923568;29;20511;-87
2021/03/31 05:17:43;;;;;;;19.27;12.80;;;8.90;86.20;;;;;;4915712;29;20471;-88
2021/03/31 05:23:27;;;;;;;13.80;11.50;;;9.00;85.40;;;;;;4909845;29;20451;-88
2021/03/31 05:26:48;;;;;;;17.70;10.83;;;9.10;84.70;;;;;;4918262;29;20487;-86
2021/03/31 05:40:43;;;;;;;15.70;11.70;;;9.20;83.60;;;;;;4819580;29;20439;-86
2021/03/31 05:53:05;;;;;;;17.70;10.87;;;9.20;83.60;;;;;;4946171;29;20481;-85
2021/03/31 05:55:32;;;;;;;16.20;12.40;;;9.30;83.70;;;;;;4925644;29;20564;-85
2021/03/31 05:57:58;;;;;;;12.80;10.50;;;9.20;83.80;;;;;;4944128;29;20461;-86
2021/03/31 06:00:27;;;;;;;15.80;11.67;;;9.20;83.90;;;;;;4956131;28;20481;-87
2021/03/31 06:02:53;;;;;;;16.90;13.43;;;9.20;84.10;;;;;;4953370;29;20457;-86
2021/03/31 06:05:20;;;;;;;18.97;10.33;;;9.30;84.00;;;;;;4942581;28;20511;-87
2021/03/31 06:07:48;;;;;;;13.83;11.07;;;9.30;83.80;;;;;;4940429;29;20474;-87
2021/03/31 06:10:17;;;;;;;15.20;10.20;;;9.30;84.00;;;;;;4937734;29;20515;-87
2021/03/31 06:12:46;;;;;;;21.60;13.00;;;9.40;84.10;;;;;;4921859;29;20445;-88
2021/03/31 06:15:28;;;;;;;17.53;11.53;;;9.50;83.70;;;;;;4919817;29;21035;-88
2021/03/31 06:17:59;;;;;;;12.27;10.27;;;9.50;83.80;;;;;;4929991;29;21042;-85
2021/03/31 06:20:54;;;;;;;17.63;10.27;;;9.50;83.60;;;;;;4934734;29;20491;-87
2021/03/31 06:23:36;;;;;;;18.20;11.57;;;9.60;83.10;;;;;;4925363;29;20466;-89
2021/03/31 06:26:18;;;;;;;19.73;11.57;;;9.70;83.10;;;;;;4922351;29;20494;-88
2021/03/31 06:28:53;;;;;;;10.43;9.37;;;9.70;82.80;;;;;;4935843;29;20457;-88
2021/03/31 06:31:19;;;;;;;14.83;10.70;;;9.80;82.40;;;;;;4938239;29;20606;-87
2021/03/31 06:33:48;;;;;;;20.63;10.60;;;9.90;82.10;;;;;;4936774;29;20524;-87
2021/03/31 06:36:18;;;;;;;12.23;11.00;;;10.00;80.90;;;;;;4937068;29;20481;-87
2021/03/31 06:38:49;;;;;;;12.53;11.10;;;10.20;80.20;;;;;;4935619;29;20457;-88
2021/03/31 06:41:27;;;;;;;12.20;9.10;;;10.30;79.10;;;;;;4938816;29;20446;-88
2021/03/31 06:44:09;;;;;;;25.17;11.87;;;10.40;78.80;;;;;;4933283;29;20446;-87
2021/03/31 06:46:42;;;;;;;17.07;10.23;;;10.50;78.70;;;;;;4933426;29;20556;-87
2021/03/31 06:49:10;;;;;;;15.23;10.50;;;10.60;78.10;;;;;;4953946;28;20438;-87
2021/03/31 06:51:37;;;;;;;13.43;9.87;;;10.70;77.80;;;;;;4937057;29;20999;-88
2021/03/31 06:54:14;;;;;;;16.03;11.80;;;10.70;77.00;;;;;;4936974;29;20440;-88
2021/03/31 06:56:41;;;;;;;12.57;10.83;;;10.80;77.10;;;;;;4936929;29;20477;-87
2021/03/31 06:59:08;;;;;;;18.60;11.00;;;10.80;76.50;;;;;;4936081;29;20542;-87
2021/03/31 07:02:04;;;;;;;13.80;10.87;;;10.90;76.20;;;;;;4974491;23;20492;-87
2021/03/31 07:04:33;;;;;;;19.73;13.20;;;11.00;75.80;;;;;;4984521;28;20500;-87
2021/03/31 07:07:07;;;;;;;13.00;9.57;;;11.00;75.30;;;;;;4976864;28;20448;-86
2021/03/31 07:09:49;;;;;;;10.83;9.57;;;11.10;74.80;;;;;;4968022;28;20532;-88
2021/03/31 07:12:59;;;;;;;15.40;10.63;;;11.20;74.80;;;;;;5008573;23;20493;-86
2021/03/31 07:15:48;;;;;;;13.60;11.10;;;11.20;74.50;;;;;;4958944;29;20445;-87
2021/03/31 07:18:38;;;;;;;18.60;10.67;;;11.30;74.10;;;;;;4961521;29;20476;-87
2021/03/31 07:24:23;;;;;;;21.50;11.43;;;11.60;73.40;;;;;;4882132;29;20508;-87
2021/03/31 07:26:53;;;;;;;14.73;11.07;;;12.00;73.50;;;;;;4943271;29;20446;-86
2021/03/31 07:29:23;;;;;;;12.37;10.60;;;12.60;71.30;;;;;;4943009;29;20513;-86
2021/03/31 07:31:59;;;;;;;12.47;10.70;;;13.00;69.30;;;;;;4944019;29;20470;-87
2021/03/31 07:34:37;;;;;;;18.47;10.90;;;12.90;68.40;;;;;;4946081;29;20448;-88
2021/03/31 07:37:10;;;;;;;18.00;10.00;;;13.60;68.10;;;;;;4944778;29;20509;-87
2021/03/31 07:39:44;;;;;;;13.57;10.80;;;14.10;65.70;;;;;;4942468;29;21352;-88
2021/03/31 07:42:22;;;;;;;13.00;11.70;;;14.40;64.70;;;;;;4943686;29;20901;-88
2021/03/31 07:44:54;;;;;;;12.83;10.40;;;14.60;63.40;;;;;;4937056;29;20477;-88
2021/03/31 07:47:42;;;;;;;11.57;10.40;;;14.90;62.90;;;;;;4940042;29;20947;-88
2021/03/31 07:50:29;;;;;;;12.70;10.77;;;15.70;61.50;;;;;;4940427;29;20445;-87
2021/03/31 07:52:57;;;;;;;12.40;11.20;;;16.10;59.10;;;;;;4945397;29;20966;-89
2021/03/31 07:56:08;;;;;;;13.97;10.50;;;16.10;58.90;;;;;;4943259;29;20445;-89
2021/03/31 07:58:41;;;;;;;12.03;10.93;;;16.50;58.10;;;;;;4931893;29;20492;-87
2021/03/31 08:01:21;;;;;;;12.77;11.47;;;17.20;57.60;;;;;;4942936;29;20453;-87
2021/03/31 08:03:51;;;;;;;12.27;10.70;;;17.70;55.40;;;;;;4941865;29;20504;-87
2021/03/31 08:06:22;;;;;;;13.87;11.90;;;17.90;55.30;;;;;;4946060;29;20507;-87
2021/03/31 08:09:00;;;;;;;12.23;10.93;;;18.10;54.40;;;;;;4954733;29;20422;-88
2021/03/31 08:11:51;;;;;;;15.77;12.13;;;18.00;54.10;;;;;;4949782;29;20446;-87
2021/03/31 08:14:42;;;;;;;13.53;11.07;;;18.20;54.20;;;;;;4955664;29;20447;-87
2021/03/31 08:17:13;;;;;;;12.80;11.30;;;18.00;54.20;;;;;;4958915;28;20430;-87
2021/03/31 08:19:48;;;;;;;12.20;11.00;;;17.90;53.70;;;;;;4952849;29;20808;-88
2021/03/31 08:22:42;;;;;;;17.40;10.60;;;18.10;54.70;;;;;;4952351;28;20457;-87
2021/03/31 08:25:36;;;;;;;12.43;11.00;;;18.20;53.90;;;;;;4953769;28;20893;-87
2021/03/31 08:28:09;;;;;;;13.00;11.70;;;18.40;53.70;;;;;;4948186;29;20445;-88
2021/03/31 08:30:57;;;;;;;13.10;11.27;;;18.70;53.40;;;;;;4952492;29;20462;-88
2021/03/31 08:33:40;;;;;;;12.50;11.03;;;18.80;53.50;;;;;;4961228;28;20490;-87
2021/03/31 08:36:27;;;;;;;14.30;11.10;;;19.90;52.40;;;;;;4948010;29;20451;-87
2021/03/31 08:39:22;;;;;;;16.73;12.70;;;21.20;50.80;;;;;;4949611;29;20512;-88
2021/03/31 08:42:08;;;;;;;15.17;11.77;;;21.40;48.80;;;;;;4948808;29;20453;-88
2021/03/31 08:44:44;;;;;;;16.63;11.20;;;21.90;47.90;;;;;;4944629;29;20566;-89
2021/03/31 08:47:16;;;;;;;13.10;10.97;;;22.40;47.30;;;;;;4948280;29;20466;-88
2021/03/31 08:49:44;;;;;;;12.40;10.73;;;23.20;46.10;;;;;;4945224;29;20454;-87
2021/03/31 08:52:13;;;;;;;12.00;10.80;;;23.90;44.60;;;;;;4944023;29;20485;-88
2021/03/31 08:55:08;;;;;;;;;;;;;;;;;;;;;
2021/03/31 08:58:43;;;;;;;15.67;11.30;;;24.20;43.20;;;;;;4944500;29;20446;-88
2021/03/31 09:07:58;;;;;;;12.90;11.67;;;25.80;41.60;;;;;;4890675;29;20425;-85
2021/03/31 09:10:28;;;;;;;15.50;12.93;;;26.50;40.30;;;;;;4926726;29;20974;-85
2021/03/31 09:12:55;;;;;;;11.87;10.57;;;26.90;39.40;;;;;;4941446;29;20471;-84
2021/03/31 09:15:22;;;;;;;16.10;12.07;;;27.60;38.10;;;;;;4940763;29;20563;-86
2021/03/31 09:17:55;;;;;;;14.80;12.37;;;27.70;37.80;;;;;;4942913;29;20448;-85
2021/03/31 09:20:23;;;;;;;13.70;12.30;;;28.00;36.90;;;;;;4940531;29;20450;-85
2021/03/31 09:22:49;;;;;;;15.57;12.90;;;28.30;36.80;;;;;;4941656;29;20466;-85
2021/03/31 09:25:19;;;;;;;15.80;12.10;;;28.70;36.70;;;;;;4947048;29;20474;-86
2021/03/31 09:27:47;;;;;;;14.77;12.37;;;29.30;36.20;;;;;;4940356;29;20970;-85
2021/03/31 09:30:19;;;;;;;16.00;13.70;;;28.90;35.90;;;;;;4941753;29;20453;-86
2021/03/31 09:32:52;;;;;;;12.10;10.87;;;29.60;35.90;;;;;;4942982;29;20583;-84
2021/03/31 09:35:22;;;;;;;15.23;13.63;;;30.10;34.40;;;;;;4944001;29;20441;-83
2021/03/31 09:37:51;;;;;;;14.17;12.53;;;30.00;34.30;;;;;;4942390;29;20202;-83
2021/03/31 09:40:21;;;;;;;13.63;12.23;;;29.90;33.90;;;;;;4944221;29;20450;-85
2021/03/31 09:42:53;;;;;;;14.63;12.20;;;29.70;34.30;;;;;;4940971;29;20458;-86
2021/03/31 09:45:28;;;;;;;15.43;12.50;;;29.70;34.40;;;;;;4938976;29;20486;-86
2021/03/31 09:47:58;;;;;;;14.23;11.93;;;30.30;33.90;;;;;;4939312;29;20468;-86
2021/03/31 09:54:30;;;;;;;14.40;12.90;;;31.30;32.20;;;;;;4977926;23;20587;-88
2021/03/31 09:57:24;;;;;;;14.27;12.87;;;30.80;32.10;;;;;;4972021;28;20457;-88
2021/03/31 09:59:54;;;;;;;13.50;11.73;;;30.80;32.00;;;;;;4980105;28;20808;-87
2021/03/31 10:08:39;;;;;;;17.27;12.80;;;33.40;29.40;;;;;;4901424;29;20507;-87
2021/03/31 10:11:09;;;;;;;15.57;12.67;;;34.30;28.80;;;;;;4957407;28;20531;-87
2021/03/31 10:13:36;;;;;;;17.17;12.83;;;34.70;28.90;;;;;;4970238;28;20421;-88
2021/03/31 10:16:05;;;;;;;14.50;13.00;;;35.40;27.80;;;;;;4975826;28;20434;-87
2021/03/31 10:18:59;;;;;;;19.17;13.60;;;35.30;27.40;;;;;;4968480;28;20976;-87
2021/03/31 10:24:49;;;;;;;14.83;13.30;;;36.10;26.30;;;;;;4920678;29;20916;-88
2021/03/31 10:27:50;;;;;;;14.17;12.63;;;37.10;25.70;;;;;;4923150;29;20438;-87
2021/03/31 10:30:42;;;;;;;12.80;11.50;;;37.80;25.40;;;;;;4926888;29;20940;-88
2021/03/31 10:48:58;;;;;;;12.80;11.60;;;37.90;24.30;;;;;;4978412;28;20448;-89
2021/03/31 10:51:32;;;;;;;13.03;11.17;;;36.50;24.40;;;;;;4988518;28;20437;-88
2021/03/31 10:54:01;;;;;;;15.27;10.73;;;37.60;24.60;;;;;;4972361;28;20460;-89
2021/03/31 10:59:42;;;;;;;14.10;12.17;;;38.10;23.30;;;;;;4944757;28;20500;-88
2021/03/31 11:08:41;;;;;;;11.90;10.97;;;40.20;21.50;;;;;;4972778;28;20408;-87
2021/03/31 11:11:11;;;;;;;12.27;11.03;;;39.10;21.70;;;;;;4964967;28;20424;-87
2021/03/31 11:14:02;;;;;;;12.27;10.93;;;39.40;21.50;;;;;;4962849;28;20792;-87
2021/03/31 11:16:49;;;;;;;14.73;12.27;;;40.20;21.20;;;;;;4966455;28;20500;-87
2021/03/31 11:27:32;;;;;;;14.20;11.70;;;41.80;19.40;;;;;;4969917;28;21052;-88
2021/03/31 11:29:58;;;;;;;12.93;11.63;;;41.00;19.40;;;;;;4987130;28;20491;-88
2021/03/31 11:32:25;;;;;;;12.73;11.50;;;41.20;19.40;;;;;;4986486;28;20448;-87
2021/03/31 11:34:53;;;;;;;14.77;12.20;;;42.00;18.90;;;;;;4972198;28;20476;-88
2021/03/31 11:37:45;;;;;;;13.53;12.23;;;43.00;18.70;;;;;;4982637;28;20481;-88
2021/03/31 11:40:28;;;;;;;13.47;12.30;;;43.60;18.10;;;;;;4974463;28;20448;-88
2021/03/31 11:42:59;;;;;;;14.17;12.87;;;43.30;17.80;;;;;;4971516;28;20472;-88
2021/03/31 11:48:43;;;;;;;12.07;10.73;;;43.80;17.70;;;;;;4973527;28;20436;-88
2021/03/31 11:51:25;;;;;;;12.30;11.20;;;43.20;16.90;;;;;;4973459;28;20445;-88
2021/03/31 11:53:56;;;;;;;11.90;10.73;;;42.40;16.30;;;;;;4969884;28;20461;-88
2021/03/31 11:56:34;;;;;;;11.33;10.30;;;43.30;16.60;;;;;;4973141;28;20507;-89
2021/03/31 11:59:03;;;;;;;11.40;10.40;;;43.10;16.20;;;;;;4971583;28;20434;-87
2021/03/31 12:01:58;;;;;;;12.30;11.30;;;43.50;16.20;;;;;;4969853;28;20538;-88
2021/03/31 12:04:35;;;;;;;13.30;12.10;;;43.50;16.40;;;;;;4974431;28;20794;-88
2021/03/31 12:07:04;;;;;;;12.97;11.70;;;43.70;16.10;;;;;;4974019;28;20456;-88
2021/03/31 12:09:42;;;;;;;15.10;12.90;;;43.70;16.50;;;;;;4972683;28;20539;-89
2021/03/31 12:12:13;;;;;;;14.10;12.90;;;42.80;16.90;;;;;;4975034;28;20510;-87
2021/03/31 12:14:43;;;;;;;14.37;13.07;;;39.80;17.60;;;;;;4972803;28;20454;-88
2021/03/31 12:17:17;;;;;;;13.60;12.40;;;38.90;18.90;;;;;;4973058;28;20463;-88
2021/03/31 12:19:53;;;;;;;15.43;14.03;;;38.30;19.40;;;;;;4973954;28;20467;-89
2021/03/31 12:22:19;;;;;;;15.60;14.10;;;38.40;18.90;;;;;;4969883;28;20464;-88
2021/03/31 12:24:58;;;;;;;15.83;14.23;;;38.40;19.40;;;;;;4976687;28;20495;-88
2021/03/31 12:27:29;;;;;;;14.47;13.17;;;38.70;19.70;;;;;;4964051;28;21020;-88
2021/03/31 12:29:56;;;;;;;17.10;15.40;;;40.30;18.90;;;;;;4980029;28;20456;-88
2021/03/31 12:32:31;;;;;;;16.13;14.60;;;41.30;18.50;;;;;;4978988;28;20476;-89
2021/03/31 12:35:05;;;;;;;17.30;15.63;;;42.30;17.80;;;;;;4979622;28;20487;-88
2021/03/31 12:37:36;;;;;;;18.10;16.60;;;42.40;17.30;;;;;;4975133;28;20477;-88
2021/03/31 12:40:13;;;;;;;17.80;14.43;;;41.40;17.40;;;;;;4976845;28;20459;-88
2021/03/31 12:42:43;;;;;;;16.00;14.53;;;40.90;18.20;;;;;;4982627;28;20494;-89
2021/03/31 12:45:13;;;;;;;15.90;14.40;;;41.90;18.00;;;;;;4986234;28;20451;-88
2021/03/31 12:47:49;;;;;;;16.70;15.20;;;42.20;17.50;;;;;;4979445;28;20870;-89
2021/03/31 12:50:27;;;;;;;14.90;13.70;;;43.00;16.90;;;;;;4969433;28;20448;-86
2021/03/31 12:52:58;;;;;;;15.67;14.37;;;43.20;16.50;;;;;;4968927;28;20472;-88
2021/03/31 12:55:52;;;;;;;15.07;13.77;;;42.40;16.20;;;;;;4966996;28;20480;-88
2021/03/31 12:58:21;;;;;;;16.77;15.30;;;43.00;16.60;;;;;;4969299;28;20448;-88
2021/03/31 13:00:54;;;;;;;17.40;15.30;;;41.40;17.20;;;;;;4972110;28;20465;-87
2021/03/31 13:03:21;;;;;;;16.67;15.20;;;40.60;17.40;;;;;;4974790;28;20583;-89
2021/03/31 13:05:54;;;;;;;16.57;14.93;;;41.30;17.90;;;;;;4980547;28;20433;-88
2021/03/31 13:08:20;;;;;;;16.30;14.90;;;41.40;17.00;;;;;;4979190;28;20452;-88
2021/03/31 13:10:52;;;;;;;17.03;15.40;;;41.50;17.60;;;;;;4981471;28;20455;-88
2021/03/31 13:13:44;;;;;;;16.10;14.40;;;41.20;17.60;;;;;;4976612;28;20489;-88
2021/03/31 13:16:16;;;;;;;15.63;14.13;;;41.10;17.60;;;;;;4974389;28;20528;-88
2021/03/31 13:24:44;;;;;;;12.87;11.77;;;41.50;17.30;;;;;;4985877;28;20436;-93
2021/03/31 13:30:32;;;;;;;14.47;13.07;;;41.30;17.10;;;;;;4960528;28;20448;-88
2021/03/31 13:33:03;;;;;;;13.67;12.47;;;41.00;16.30;;;;;;4974351;28;20469;-88
2021/03/31 13:35:40;;;;;;;14.00;12.70;;;39.00;17.60;;;;;;4965105;28;20515;-89
2021/03/31 13:38:19;;;;;;;13.83;11.90;;;38.10;18.20;;;;;;4960651;28;20966;-87
2021/03/31 13:54:08;;;;;;;10.50;8.33;;;36.10;20.10;;;;;;4926713;23;20501;-85
2021/03/31 13:56:38;;;;;;;17.00;12.73;;;36.40;21.90;;;;;;4928179;29;20572;-84
2021/03/31 13:59:05;;;;;;;15.50;12.30;;;35.40;20.70;;;;;;4939056;29;20970;-86
2021/03/31 14:01:31;;;;;;;13.13;11.73;;;34.90;21.30;;;;;;4925073;29;20482;-85
2021/03/31 14:03:57;;;;;;;13.10;11.80;;;34.80;22.10;;;;;;4929515;29;20524;-85
2021/03/31 14:06:23;;;;;;;13.87;12.30;;;34.90;21.40;;;;;;4931922;29;20447;-85
2021/03/31 14:08:49;;;;;;;12.47;11.20;;;35.20;21.40;;;;;;4937087;29;20454;-86
2021/03/31 14:11:17;;;;;;;15.60;13.77;;;35.40;21.70;;;;;;4931890;29;20450;-83
2021/03/31 14:13:43;;;;;;;12.60;11.30;;;35.00;21.00;;;;;;4927012;29;20450;-85
2021/03/31 14:16:10;;;;;;;12.47;11.37;;;34.60;21.70;;;;;;4929737;29;20493;-85
2021/03/31 14:18:38;;;;;;;11.23;10.20;;;34.50;21.60;;;;;;4931686;29;20446;-84
2021/03/31 14:21:05;;;;;;;17.23;14.37;;;33.90;22.10;;;;;;4932515;29;20494;-84
2021/03/31 14:23:31;;;;;;;15.90;13.97;;;33.00;23.00;;;;;;4920308;29;20510;-85
2021/03/31 14:25:58;;;;;;;16.43;13.83;;;33.00;23.50;;;;;;4915030;29;21383;-86
2021/03/31 14:28:25;;;;;;;13.80;12.40;;;33.80;23.40;;;;;;4928820;29;20450;-85
2021/03/31 14:30:51;;;;;;;13.63;11.50;;;34.10;22.80;;;;;;4930114;29;20439;-85
2021/03/31 14:33:17;;;;;;;13.40;12.20;;;34.30;22.60;;;;;;4925155;29;20481;-85
2021/03/31 14:35:44;;;;;;;14.07;12.63;;;34.00;22.80;;;;;;4927494;29;20495;-87
2021/03/31 14:38:10;;;;;;;15.50;13.20;;;33.60;23.20;;;;;;4940711;29;20542;-87
2021/03/31 14:40:36;;;;;;;13.30;12.00;;;33.40;22.90;;;;;;4933775;29;20450;-85
2021/03/31 14:43:03;;;;;;;13.57;12.10;;;33.30;23.10;;;;;;4936093;29;20505;-86
2021/03/31 14:45:30;;;;;;;12.23;11.03;;;33.20;23.80;;;;;;4936100;29;20857;-86
2021/03/31 14:47:59;;;;;;;15.50;12.60;;;33.40;23.50;;;;;;4943904;29;20435;-87
2021/03/31 14:50:28;;;;;;;14.57;13.07;;;33.30;23.40;;;;;;4943569;29;20456;-86
2021/03/31 15:01:11;;;;;;;12.90;9.67;;;30.80;24.70;;;;;;4930808;29;20493;-85
2021/03/31 15:03:37;;;;;;;14.27;12.87;;;30.40;25.40;;;;;;4931042;29;20446;-85
2021/03/31 15:06:04;;;;;;;10.53;9.63;;;30.90;25.30;;;;;;4932316;29;20451;-88